Data for 05/29/2008

Time Sea-Level Adjusted Pressure Absolute Pressure Temperature Relative Humidity Dew Point   
(mb) (inHg) (mb) (inHg) (C) (F) (%) (C) (F)
00:05 1015 29.97 845 24.95 7.4 45.3 92 6.2 43.2
00:10 1015 29.97 845 24.95 7.2 45 93 6.1 43
00:15 1015 29.97 845 24.95 7.1 44.7 93 6.1 42.9
00:20 1015 29.97 845 24.95 7 44.7 93 6 42.9
00:25 1015 29.97 845 24.95 7.1 44.7 93 6 42.9
00:30 1015 29.97 845 24.95 7.2 44.9 93 6.1 43
00:35 1015 29.97 845 24.95 7.3 45.1 92 6.1 43
00:40 1015 29.97 845 24.95 7.3 45.2 92 6.1 42.9
00:45 1015 29.97 845 24.95 7.3 45.1 92 6 42.9
00:50 1015 29.97 845 24.95 7 44.6 93 5.9 42.6
00:55 1015 29.97 845 24.95 6.7 44 94 5.7 42.3
01:00 1015 29.97 844 24.92 6.5 43.7 94 5.6 42.1
01:05 1015 29.97 844 24.92 6.5 43.7 94 5.6 42
01:10 1015 29.97 844 24.92 6.5 43.6 94 5.5 42
01:15 1015 29.97 844 24.92 6.4 43.6 94 5.5 41.8
01:20 1015 29.97 844 24.92 6.3 43.4 94 5.4 41.8
01:25 1015 29.97 844 24.92 6.3 43.3 94 5.3 41.6
01:30 1015 29.97 844 24.92 6.3 43.3 94 5.3 41.6
01:35 1015 29.97 844 24.92 6.3 43.4 93 5.3 41.5
01:40 1015 29.97 844 24.92 6.3 43.3 93 5.2 41.4
01:45 1015 29.97 844 24.92 6.4 43.4 93 5.3 41.5
01:50 1015 29.97 844 24.92 6.5 43.8 92 5.3 41.5
01:55 1015 29.97 844 24.92 6.5 43.6 92 5.2 41.4
02:00 1015 29.97 844 24.92 6.6 43.9 91 5.3 41.5
02:05 1015 29.97 844 24.92 6.5 43.7 92 5.3 41.5
02:10 1015 29.97 844 24.92 6.3 43.3 92 5.2 41.3
02:15 1015 29.97 844 24.92 6.1 42.9 93 5 41.1
02:20 1015 29.97 844 24.92 5.9 42.5 94 4.9 40.9
02:25 1015 29.97 844 24.92 5.8 42.4 94 4.9 40.9
02:30 1015 29.97 844 24.92 5.9 42.6 94 5 40.9
02:35 1015 29.97 844 24.92 5.9 42.6 94 5 40.9
02:40 1015 29.97 844 24.92 5.8 42.5 94 4.9 40.9
02:45 1015 29.97 844 24.92 6 42.8 93 5 40.9
02:50 1015 29.97 844 24.92 6.2 43.2 93 5.1 41.2
02:55 1015 29.97 844 24.92 6.3 43.4 92 5.1 41.2
03:00 1014 29.94 844 24.92 6.2 43.2 92 5 41
03:05 1014 29.94 844 24.92 6.1 43 92 4.9 40.8
03:10 1014 29.94 844 24.92 6.2 43.1 92 4.9 40.8
03:15 1014 29.94 844 24.92 6 42.8 92 4.8 40.7
03:20 1014 29.94 844 24.92 6 42.8 92 4.9 40.8
03:25 1014 29.94 844 24.92 6.2 43.1 92 4.9 40.8
03:30 1014 29.94 844 24.92 6.4 43.5 91 5 40.9
03:35 1014 29.94 844 24.92 6.4 43.6 90 5 40.9
03:40 1014 29.94 844 24.92 6.5 43.8 89 4.9 40.9
03:45 1014 29.94 844 24.92 6.4 43.5 90 4.9 40.8
03:50 1014 29.94 844 24.92 6.1 43 90 4.6 40.4
03:55 1014 29.94 844 24.92 5.8 42.5 91 4.5 40.1
04:00 1015 29.97 844 24.92 5.6 42.2 92 4.4 39.9
04:05 1014 29.94 844 24.92 5.4 41.8 92 4.2 39.6
04:10 1014 29.94 844 24.92 5.3 41.6 93 4.2 39.6
04:15 1014 29.94 844 24.92 5.4 41.8 92 4.3 39.7
04:20 1014 29.94 844 24.92 5.5 41.9 92 4.3 39.8
04:25 1014 29.94 844 24.92 5.4 41.7 92 4.3 39.7
04:30 1014 29.94 844 24.92 5.4 41.7 92 4.3 39.7
04:35 1014 29.94 844 24.92 5.4 41.8 92 4.3 39.8
04:40 1015 29.97 844 24.92 5.4 41.7 92 4.2 39.6
04:45 1015 29.97 844 24.92 5.4 41.6 92 4.2 39.6
04:50 1015 29.97 844 24.92 5.2 41.4 93 4.1 39.4
04:55 1015 29.97 844 24.92 5.2 41.4 93 4.2 39.5
05:00 1015 29.97 844 24.92 5.3 41.6 93 4.3 39.7
05:05 1015 29.97 844 24.92 5.4 41.6 93 4.2 39.6
05:10 1015 29.97 844 24.92 5.1 41.2 93 4 39.2
05:15 1015 29.97 844 24.92 4.8 40.6 94 4 39.1
05:20 1015 29.97 844 24.92 5.1 41.2 93 4.1 39.4
05:25 1015 29.97 844 24.92 5 41.1 93 4.1 39.3
05:30 1015 29.97 844 24.92 5 41 93 4 39.1
05:35 1015 29.97 844 24.92 5 41.1 93 4 39.1
05:40 1015 29.97 844 24.92 5.1 41.1 93 4 39.1
05:45 1015 29.97 844 24.92 5.1 41.2 93 4 39.2
05:50 1015 29.97 844 24.92 5.2 41.3 93 4.1 39.3
05:55 1015 29.97 844 24.92 5 41 93 3.9 39.1
06:00 1015 29.97 844 24.92 4.8 40.6 93 3.7 38.7
06:05 1015 29.97 844 24.92 4.6 40.3 93 3.6 38.5
06:10 1015 29.97 844 24.92 4.4 39.9 94 3.5 38.3
06:15 1015 29.97 844 24.92 4.4 39.9 94 3.5 38.3
06:20 1015 29.97 844 24.92 4.6 40.2 94 3.7 38.6
06:25 1015 29.97 844 24.92 4.7 40.4 94 3.8 38.8
06:30 1015 29.97 844 24.92 4.7 40.5 94 3.8 38.8
06:35 1015 29.97 844 24.92 4.6 40.3 95 3.8 38.9
06:40 1015 29.97 844 24.92 4.9 40.8 94 4 39.2
06:45 1015 29.97 844 24.92 4.9 40.8 94 4 39.2
06:50 1015 29.97 844 24.92 4.9 40.8 94 4 39.3
06:55 1015 29.97 844 24.92 5.1 41.2 94 4.2 39.6
07:00 1015 29.97 844 24.92 5.4 41.7 93 4.4 39.9
07:05 1015 29.97 844 24.92 5.6 42.1 93 4.5 40.1
07:10 1015 29.97 844 24.92 5.5 41.9 93 4.5 40.1
07:15 1015 29.97 844 24.92 5.6 42 94 4.6 40.3
07:20 1015 29.97 844 24.92 5.7 42.2 93 4.7 40.4
07:25 1015 29.97 844 24.92 5.8 42.5 93 4.7 40.5
07:30 1015 29.97 844 24.92 6 42.8 92 4.8 40.7
07:35 1015 29.97 844 24.92 6.2 43.1 92 5 41
07:40 1015 29.97 844 24.92 6.2 43.2 92 5.1 41.1
07:45 1015 29.97 844 24.92 6.4 43.5 92 5.2 41.3
07:50 1015 29.97 844 24.92 6.6 43.9 91 5.3 41.6
07:55 1015 29.97 844 24.92 6.9 44.5 91 5.6 42
08:00 1015 29.97 845 24.95 7.2 44.9 91 5.7 42.3
08:05 1015 29.97 844 24.92 7.4 45.3 90 5.8 42.5
08:10 1015 29.97 844 24.92 7.6 45.7 89 5.9 42.7
08:15 1015 29.97 844 24.92 7.9 46.1 88 6.1 42.9
08:20 1015 29.97 844 24.92 8.1 46.6 88 6.2 43.2
08:25 1015 29.97 844 24.92 8.4 47 87 6.3 43.4
08:30 1015 29.97 844 24.92 8.5 47.3 86 6.3 43.3
08:35 1015 29.97 844 24.92 8.8 47.9 84 6.3 43.4
08:40 1015 29.97 844 24.92 9.1 48.3 84 6.5 43.6
08:45 1015 29.97 844 24.92 9.9 49.8 81 6.8 44.2
08:50 1015 29.97 844 24.92 10.2 50.4 79 6.7 44.1
08:55 1015 29.97 844 24.92 10.1 50.3 77 6.4 43.5
09:00 1015 29.97 844 24.92 10.3 50.5 77 6.4 43.6
09:05 1015 29.97 844 24.92 10.7 51.2 75 6.5 43.6
09:10 1015 29.97 844 24.92 11.6 52.9 70 6.4 43.5
09:15 1015 29.97 844 24.92 12.2 53.9 66 6 42.8
09:20 1015 29.97 844 24.92 12.1 53.7 68 6.3 43.4
09:25 1015 29.97 844 24.92 12 53.5 67 6 42.8
09:30 1015 29.97 844 24.92 12.3 54.1 65 6 42.8
09:35 1015 29.97 844 24.92 13.5 56.3 61 6.1 43.1
09:40 1015 29.97 844 24.92 13.2 55.7 61 5.8 42.5
09:45 1015 29.97 844 24.92 12.4 54.4 63 5.6 42
09:50 1015 29.97 844 24.92 13.4 56.1 59 5.5 41.9
09:55 1015 29.97 844 24.92 14.5 58.1 55 5.6 42
10:00 1015 29.97 844 24.92 14.7 58.5 52 5.2 41.3
10:05 1015 29.97 844 24.92 14.1 57.3 56 5.5 41.9
10:10 1015 29.97 844 24.92 13.5 56.2 56 4.8 40.7
10:15 1015 29.97 844 24.92 13.5 56.2 57 5.1 41.3
10:20 1015 29.97 844 24.92 13.9 57 57 5.6 42
10:25 1015 29.97 844 24.92 14.6 58.3 54 5.5 41.9
10:30 1015 29.97 844 24.92 14.7 58.4 55 5.7 42.2
10:35 1015 29.97 844 24.92 14.9 58.8 53 5.6 42
10:40 1015 29.97 844 24.92 14.3 57.8 56 5.7 42.3
10:45 1015 29.97 844 24.92 14.5 58.1 56 6 42.8
10:50 1015 29.97 844 24.92 14.4 57.8 58 6.2 43.2
10:55 1015 29.97 844 24.92 15 58.9 58 6.7 44.1
11:00 1015 29.97 844 24.92 15.5 60 55 6.7 44.1
11:05 1015 29.97 844 24.92 15.9 60.6 55 6.8 44.3
11:10 1015 29.97 844 24.92 16.2 61.1 54 6.8 44.3
11:15 1015 29.97 844 24.92 16.5 61.8 52 6.8 44.2
11:20 1015 29.97 844 24.92 16.5 61.7 51 6.4 43.6
11:25 1015 29.97 844 24.92 16.8 62.2 51 6.7 44.1
11:30 1015 29.97 844 24.92 16.6 61.9 52 6.7 44
11:35 1015 29.97 844 24.92 16.5 61.7 53 7 44.7
11:40 1015 29.97 844 24.92 15.6 60.1 55 6.7 44
11:45 1015 29.97 844 24.92 15.9 60.5 52 6.1 43
11:50 1015 29.97 844 24.92 16.8 62.2 50 6.4 43.5
11:55 1015 29.97 844 24.92 16.6 61.8 50 6.3 43.3
12:00 1015 29.97 844 24.92 16.5 61.7 49 6 42.8
12:05 1015 29.97 844 24.92 16.7 62.1 49 5.9 42.6
12:10 1014 29.94 844 24.92 16.4 61.4 50 6 42.9
12:15 1014 29.94 844 24.92 17.3 63.1 45 5.5 41.9
12:20 1014 29.94 844 24.92 17.6 63.7 43 5 41
12:25 1014 29.94 844 24.92 17.2 63 47 6 42.7
12:30 1014 29.94 844 24.92 16.9 62.3 47 5.7 42.2
12:35 1014 29.94 843 24.89 17.5 63.6 45 5.6 42.1
12:40 1014 29.94 843 24.89 17.3 63.2 44 5 41
12:45 1014 29.94 843 24.89 17.8 64 44 5.6 42
12:50 1014 29.94 843 24.89 17.4 63.2 46 5.7 42.3
12:55 1014 29.94 843 24.89 16.4 61.6 47 5.3 41.5
13:00 1014 29.94 843 24.89 16.7 62 47 5.3 41.6
13:05 1014 29.94 843 24.89 17.1 62.8 51 7 44.5
13:10 1014 29.94 843 24.89 16 60.9 56 7.3 45.1
13:15 1014 29.94 843 24.89 16 60.8 50 5.7 42.3
13:20 1014 29.94 843 24.89 15.8 60.4 51 5.7 42.3
13:25 1014 29.94 843 24.89 16.3 61.3 49 5.6 42
13:30 1014 29.94 843 24.89 17.6 63.6 45 5.5 41.9
13:35 1014 29.94 843 24.89 17.9 64.2 43 5.4 41.7
13:40 1014 29.94 843 24.89 17.9 64.1 44 5.6 42.1
13:45 1014 29.94 843 24.89 17.6 63.7 43 5 40.9
13:50 1014 29.94 843 24.89 17.2 63 43 4.8 40.6
13:55 1014 29.94 843 24.89 18.3 64.9 42 5.3 41.6
14:00 1014 29.94 843 24.89 18.8 65.8 41 5.4 41.8
14:05 1014 29.94 843 24.89 18.3 64.9 42 5.4 41.7
14:10 1014 29.94 843 24.89 17.9 64.3 43 5.4 41.7
14:15 1014 29.94 843 24.89 19.1 66.3 40 5.4 41.7
14:20 1014 29.94 843 24.89 20.3 68.5 35 4.5 40.1
14:25 1014 29.94 843 24.89 20.1 68.2 38 5.4 41.7
14:30 1014 29.94 843 24.89 19.3 66.7 38 4.6 40.3
14:35 1014 29.94 843 24.89 19.8 67.6 39 5.5 41.9
14:40 1014 29.94 843 24.89 19 66.1 42 6.1 42.9
14:45 1014 29.94 843 24.89 18 64.4 46 6.2 43.2
14:50 1014 29.94 843 24.89 16.6 62 51 6.5 43.8
14:55 1014 29.94 843 24.89 15.9 60.7 53 6.4 43.5
15:00 1014 29.94 843 24.89 15.6 60.1 55 6.7 44.1
15:05 1014 29.94 843 24.89 15.4 59.6 62 8.1 46.6
15:10 1014 29.94 843 24.89 15.2 59.3 60 7.6 45.6
15:15 1014 29.94 843 24.89 15.2 59.3 57 6.8 44.3
15:20 1014 29.94 843 24.89 15.3 59.6 56 6.7 44
15:25 1014 29.94 843 24.89 15.4 59.8 55 6.4 43.6
15:30 1014 29.94 844 24.92 15.4 59.8 55 6.6 43.8
15:35 1014 29.94 844 24.92 15.2 59.3 56 6.5 43.7
15:40 1014 29.94 844 24.92 15.1 59.2 55 6.3 43.4
15:45 1015 29.97 844 24.92 14.7 58.5 58 6.7 44.1
15:50 1015 29.97 844 24.92 14.5 58.2 60 6.9 44.5
15:55 1015 29.97 844 24.92 14.6 58.3 59 6.9 44.4
16:00 1015 29.97 844 24.92 14.5 58.1 60 6.8 44.2
16:05 1015 29.97 844 24.92 14.4 57.9 60 6.8 44.3
16:10 1015 29.97 844 24.92 14.6 58.3 60 7 44.5
16:15 1015 29.97 844 24.92 15 59 58 6.9 44.4
16:20 1015 29.97 844 24.92 14.8 58.7 60 7.2 44.9
16:25 1015 29.97 844 24.92 14.9 58.8 57 6.6 44
16:30 1015 29.97 844 24.92 15 58.9 59 7 44.6
16:35 1015 29.97 844 24.92 14.8 58.7 60 7.2 45
16:40 1015 29.97 844 24.92 14.9 58.7 59 7 44.7
16:45 1015 29.97 844 24.92 14.9 58.8 59 7 44.6
16:50 1015 29.97 844 24.92 15 59.1 58 7 44.7
16:55 1015 29.97 844 24.92 15.3 59.6 57 6.9 44.4
17:00 1015 29.97 844 24.92 15.8 60.4 56 7 44.7
17:05 1014 29.94 844 24.92 15.9 60.6 54 6.7 44
17:10 1014 29.94 844 24.92 15.9 60.7 53 6.4 43.5
17:15 1014 29.94 844 24.92 16.3 61.3 51 6.2 43.1
17:20 1015 29.97 844 24.92 16 60.8 51 6 42.8
17:25 1015 29.97 844 24.92 15.7 60.2 49 5.2 41.4
17:30 1015 29.97 844 24.92 15.8 60.5 49 5.2 41.3
17:35 1014 29.94 844 24.92 15.8 60.4 49 5.2 41.3
17:40 1014 29.94 844 24.92 15.4 59.6 49 4.8 40.7
17:45 1014 29.94 844 24.92 15.6 60 49 4.9 40.8
17:50 1015 29.97 844 24.92 15.4 59.7 49 4.8 40.6
17:55 1015 29.97 844 24.92 15.5 59.8 49 4.7 40.5
18:00 1014 29.94 844 24.92 15.3 59.5 49 4.8 40.6
18:05 1014 29.94 844 24.92 15.3 59.6 46 3.9 39
18:10 1015 29.97 844 24.92 15.6 60.1 45 3.8 38.9
18:15 1015 29.97 844 24.92 15.9 60.7 45 4.2 39.5
18:20 1015 29.97 844 24.92 15.9 60.6 45 3.9 39.1
18:25 1015 29.97 844 24.92 15.6 60 47 4.5 40.1
18:30 1015 29.97 844 24.92 15.4 59.7 48 4.5 40.1
18:35 1015 29.97 844 24.92 15 58.9 50 4.6 40.3
18:40 1015 29.97 844 24.92 14.9 58.8 49 4.4 39.9
18:45 1015 29.97 844 24.92 14.9 58.7 50 4.6 40.3
18:50 1015 29.97 844 24.92 14.9 58.9 48 4 39.2
18:55 1015 29.97 844 24.92 15.1 59.2 47 4.1 39.4
19:00 1015 29.97 844 24.92 15.1 59.2 48 4.2 39.5
19:05 1015 29.97 844 24.92 15.1 59.2 49 4.6 40.4
19:10 1015 29.97 844 24.92 15 59.1 48 4.3 39.7
19:15 1015 29.97 844 24.92 15 59 49 4.5 40.1
19:20 1015 29.97 844 24.92 15 58.9 49 4.6 40.2
19:25 1015 29.97 844 24.92 15 59 50 4.8 40.6
19:30 1015 29.97 844 24.92 15.1 59.2 49 4.5 40
19:35 1015 29.97 844 24.92 15.4 59.7 48 4.4 40
19:40 1015 29.97 844 24.92 15.6 60 46 4.1 39.3
19:45 1015 29.97 844 24.92 15.7 60.3 46 4.3 39.7
19:50 1015 29.97 844 24.92 15.8 60.4 47 4.4 40
19:55 1015 29.97 844 24.92 15.5 59.9 54 6.2 43.2
20:00 1015 29.97 844 24.92 14.4 58 58 6.4 43.4
20:05 1015 29.97 844 24.92 13.8 56.8 59 6.1 43
20:10 1015 29.97 845 24.95 13.5 56.3 63 6.7 44.1
20:15 1015 29.97 845 24.95 13 55.5 67 7.1 44.7
20:20 1016 30 845 24.95 12.4 54.2 70 7.1 44.7
20:25 1016 30 845 24.95 11.9 53.4 72 7.1 44.8
20:30 1016 30 845 24.95 11.5 52.8 74 7.1 44.7
20:35 1016 30 845 24.95 11.4 52.5 74 6.9 44.4
20:40 1016 30 845 24.95 11.6 52.8 71 6.6 43.9
20:45 1016 30 845 24.95 12 53.6 68 6.4 43.5
20:50 1016 30 845 24.95 12.1 53.8 67 6.1 43
20:55 1016 30 845 24.95 12.2 54 67 6.4 43.5
21:00 1016 30 845 24.95 12.1 53.8 72 7.1 44.9
21:05 1016 30 845 24.95 11.7 53 73 7.1 44.8
21:10 1016 30 845 24.95 11.5 52.7 74 7 44.6
21:15 1016 30 845 24.95 11.6 52.9 73 7 44.5
21:20 1016 30 845 24.95 11.6 52.9 73 6.9 44.4
21:25 1016 30 845 24.95 11.7 53.1 71 6.7 44.1
21:30 1016 30 845 24.95 11.7 53.1 71 6.7 44.1
21:35 1016 30 845 24.95 11.8 53.2 73 7.1 44.7
21:40 1016 30 845 24.95 11.7 53 74 7.2 45
21:45 1016 30 846 24.98 11.4 52.5 77 7.5 45.5
21:50 1016 30 846 24.98 11.2 52.2 77 7.3 45.1
21:55 1016 30 846 24.98 11.3 52.3 74 6.8 44.2
22:00 1016 30 846 24.98 11.4 52.6 76 7.4 45.3
22:05 1016 30 845 24.95 11.1 51.9 78 7.4 45.3
22:10 1016 30 845 24.95 10.6 51.2 84 8 46.4
22:15 1016 30 845 24.95 10.2 50.4 87 8.1 46.6
22:20 1016 30 846 24.98 10 50 86 7.8 46
22:25 1017 30.03 846 24.98 10.3 50.5 86 8.1 46.6
22:30 1016 30 846 24.98 10.2 50.3 88 8.2 46.8
22:35 1016 30 845 24.95 9.9 49.9 89 8.2 46.8
22:40 1016 30 845 24.95 9.8 49.6 90 8.2 46.8
22:45 1016 30 845 24.95 9.7 49.4 90 8 46.5
22:50 1016 30 846 24.98 9.7 49.4 89 7.9 46.3
22:55 1016 30 846 24.98 9.6 49.3 89 7.9 46.1
23:00 1016 30 846 24.98 9.7 49.4 87 7.6 45.6
23:05 1016 30 846 24.98 9.9 49.8 84 7.4 45.3
23:10 1017 30.03 846 24.98 10 50 86 7.8 46.1
23:15 1017 30.03 846 24.98 9.7 49.4 88 7.9 46.2
23:20 1017 30.03 846 24.98 9.6 49.2 89 7.8 46.1
23:25 1017 30.03 846 24.98 9.5 49.1 90 7.9 46.2
23:30 1017 30.03 846 24.98 9.4 49 90 7.8 46.1
23:35 1017 30.03 846 24.98 9.5 49.1 89 7.9 46.1
23:40 1017 30.03 846 24.98 9.6 49.4 89 7.9 46.2
23:45 1017 30.03 846 24.98 9.8 49.6 90 8.2 46.7
23:50 1017 30.03 846 24.98 9.9 49.8 90 8.4 47
23:55 1017 30.03 847 25.01 9.7 49.4 91 8.4 47
24:00 1017 30.03 847 25.01 9.7 49.4 92 8.5 47.3